Time;durP1;ratioP1;P1;durP2;ratioP2;P2;SDS_P1;SDS_P2;PMS_P1;PMS_P2;Temp;Humidity;BMP_temperature;BMP_pressure;BME280_temperature;BME280_humidity;BME280_pressure;Samples;Min_cycle;Max_cycle;Signal;HPM_P1;HPM_P2
2021/10/02 00:44:38;;;;;;;;;;;;;;;20.67;51.87;101654.66;4977874;28;1187;-52
2021/10/02 00:44:39;;;;;;;;;;;;;;;20.74;51.55;101655.22;4967817;28;1150;-51
2021/10/02 00:47:05;;;;;;;;;;;;;;;20.81;51.54;101655.75;4972718;28;1136;-52
2021/10/02 00:49:31;;;;;;;;;;;;;;;20.76;51.64;101649.41;4977785;28;1148;-53
2021/10/02 00:51:57;;;;;;;;;;;;;;;20.83;51.27;101647.19;4977252;28;1973;-49
2021/10/02 00:54:22;;;;;;;;;;;;;;;20.79;51.35;101657.13;4977570;28;1226;-49
2021/10/02 00:56:47;;;;;;;;;;;;;;;20.80;51.56;101647.75;4977282;28;924;-51
2021/10/02 00:59:13;;;;;;;;;;;;;;;20.89;51.17;101651.59;4977515;28;1151;-50
2021/10/02 01:01:58;;;;;;;;;;;;;;;21.02;50.58;101653.75;4968859;28;1140;-51
2021/10/02 01:04:24;;;;;;;;;;;;;;;20.90;51.06;101644.13;4971699;28;1311;-52
2021/10/02 01:07:05;;;;;;;;;;;;;;;20.94;51.05;101657.09;4967074;28;1219;-49
2021/10/02 01:09:40;;;;;;;;;;;;;;;20.88;51.17;101649.94;4975516;28;1183;-50
2021/10/02 01:12:24;;;;;;;;;;;;;;;20.88;51.18;101649.13;4977077;28;1903;-52
2021/10/02 01:15:03;;;;;;;;;;;;;;;20.84;51.25;101649.66;4974469;28;1483;-51
2021/10/02 01:17:38;;;;;;;;;;;;;;;20.94;51.03;101642.44;4962824;28;1211;-52
2021/10/02 01:20:07;;;;;;;;;;;;;;;21.01;50.64;101654.03;4964629;28;1101;-50
2021/10/02 01:22:41;;;;;;;;;;;;;;;20.94;50.86;101653.50;4977074;28;891;-52
2021/10/02 01:25:06;;;;;;;;;;;;;;;20.82;51.27;101651.88;4977090;28;1109;-50
2021/10/02 01:27:33;;;;;;;;;;;;;;;20.78;50.50;101642.50;4977060;28;1144;-51
2021/10/02 01:30:01;;;;;;;;;;;;;;;20.88;51.38;101644.41;4971576;28;1088;-52
2021/10/02 01:32:33;;;;;;;;;;;;;;;20.90;51.01;101642.19;4975923;28;1918;-52
2021/10/02 01:48:34;;;;;;;;;;;;;;;21.17;50.38;101639.03;4969296;28;1108;-56
2021/10/02 01:51:00;;;;;;;;;;;;;;;21.10;50.50;101652.34;4972250;28;1287;-50
2021/10/02 01:53:33;;;;;;;;;;;;;;;21.08;50.51;101646.25;4975008;28;1918;-53
2021/10/02 01:55:58;;;;;;;;;;;;;;;21.14;50.49;101650.66;4973893;28;1113;-49
2021/10/02 01:58:24;;;;;;;;;;;;;;;21.26;50.08;101652.28;4972896;28;1175;-51
2021/10/02 02:00:49;;;;;;;;;;;;;;;21.00;50.64;101653.22;4970352;28;1027;-50
2021/10/02 02:03:19;;;;;;;;;;;;;;;21.20;50.10;101652.28;4976194;28;1101;-53
2021/10/02 02:05:44;;;;;;;;;;;;;;;21.19;50.02;101649.81;4971834;28;1203;-49
2021/10/02 02:08:11;;;;;;;;;;;;;;;21.23;50.23;101650.91;4970255;28;1148;-53
2021/10/02 02:10:40;;;;;;;;;;;;;;;21.30;50.04;101656.94;4973799;28;1231;-52
2021/10/02 02:13:05;;;;;;;;;;;;;;;21.19;50.25;101650.63;4971115;28;1914;-52
2021/10/02 02:15:31;;;;;;;;;;;;;;;21.20;50.16;101648.69;4971636;28;992;-51
2021/10/02 02:18:01;;;;;;;;;;;;;;;21.32;49.83;101649.19;4970758;28;1140;-53
2021/10/02 02:20:42;;;;;;;;;;;;;;;21.27;50.08;101648.41;4976704;28;1235;-51
2021/10/02 02:23:08;;;;;;;;;;;;;;;21.20;50.05;101649.53;4971205;28;1180;-56
2021/10/02 02:25:33;;;;;;;;;;;;;;;21.04;50.63;101653.47;4975859;28;1286;-50
2021/10/02 02:27:59;;;;;;;;;;;;;;;21.27;49.85;101659.47;4974173;28;1199;-50
2021/10/02 02:30:24;;;;;;;;;;;;;;;21.13;50.24;101657.31;4971391;28;1144;-49
2021/10/02 02:32:50;;;;;;;;;;;;;;;21.17;50.11;101658.38;4976534;28;1911;-52
2021/10/02 02:35:19;;;;;;;;;;;;;;;21.02;50.68;101662.03;4970827;28;1200;-50
2021/10/02 02:37:44;;;;;;;;;;;;;;;21.00;50.49;101666.22;4976099;28;1084;-52
2021/10/02 02:40:10;;;;;;;;;;;;;;;21.13;50.28;101662.00;4973338;28;1124;-53
2021/10/02 02:42:35;;;;;;;;;;;;;;;21.15;50.21;101671.69;4972552;28;1272;-52
2021/10/02 02:45:01;;;;;;;;;;;;;;;21.06;50.50;101667.84;4964545;28;1095;-52
2021/10/02 02:47:26;;;;;;;;;;;;;;;20.95;50.71;101666.22;4974739;28;1175;-50
2021/10/02 02:49:54;;;;;;;;;;;;;;;21.09;50.57;101661.75;4976370;28;1136;-51
2021/10/02 02:52:43;;;;;;;;;;;;;;;21.16;50.17;101666.97;4977094;28;1915;-50
2021/10/02 02:55:09;;;;;;;;;;;;;;;21.03;50.62;101660.13;4979140;28;1495;-53
2021/10/02 02:57:38;;;;;;;;;;;;;;;21.00;50.65;101657.94;4980137;28;1180;-49
2021/10/02 03:00:04;;;;;;;;;;;;;;;20.90;50.87;101661.56;4978109;28;992;-51
2021/10/02 03:02:29;;;;;;;;;;;;;;;21.10;50.37;101670.88;4979558;28;1199;-51
2021/10/02 03:04:55;;;;;;;;;;;;;;;20.98;50.72;101657.38;4978131;28;873;-50
2021/10/02 03:07:21;;;;;;;;;;;;;;;21.09;50.24;101661.75;4978404;28;1136;-49
2021/10/02 03:09:47;;;;;;;;;;;;;;;21.16;50.07;101666.97;4980022;28;1171;-53
2021/10/02 03:12:12;;;;;;;;;;;;;;;20.93;50.79;101662.91;4978161;28;1922;-50
2021/10/02 03:14:38;;;;;;;;;;;;;;;21.25;49.94;101659.75;4975191;28;1117;-57
2021/10/02 03:17:03;;;;;;;;;;;;;;;21.11;50.41;101659.53;4977806;28;911;-52
2021/10/02 03:19:29;;;;;;;;;;;;;;;21.07;50.48;101655.69;4977728;28;1175;-53
2021/10/02 03:21:54;;;;;;;;;;;;;;;21.10;50.39;101651.53;4979590;28;1310;-49
2021/10/02 03:24:20;;;;;;;;;;;;;;;21.05;50.47;101651.53;4969817;28;1125;-51
2021/10/02 03:26:45;;;;;;;;;;;;;;;21.11;50.15;101645.72;4972312;28;1232;-53
2021/10/02 03:29:11;;;;;;;;;;;;;;;21.18;50.00;101637.94;4966327;28;1121;-49
2021/10/02 03:31:36;;;;;;;;;;;;;;;21.18;50.03;101626.03;4975025;28;1910;-49
2021/10/02 03:34:02;;;;;;;;;;;;;;;21.12;50.05;101627.97;4978185;28;1133;-50
2021/10/02 03:36:28;;;;;;;;;;;;;;;21.17;49.86;101610.56;4979018;28;1241;-52
2021/10/02 03:38:54;;;;;;;;;;;;;;;21.23;49.89;101616.88;4978439;28;1136;-51
2021/10/02 03:41:19;;;;;;;;;;;;;;;21.01;50.15;101621.69;4978927;28;1148;-49
2021/10/02 03:43:44;;;;;;;;;;;;;;;21.25;49.52;101614.66;4978818;28;1125;-51
2021/10/02 03:46:10;;;;;;;;;;;;;;;21.23;49.31;101634.31;4966024;28;1016;-53
2021/10/02 03:48:35;;;;;;;;;;;;;;;20.91;50.16;101627.25;4978920;28;1199;-55
2021/10/02 03:51:01;;;;;;;;;;;;;;;20.81;50.62;101621.78;4978475;28;1152;-51
2021/10/02 03:53:27;;;;;;;;;;;;;;;20.38;51.23;101618.53;4978142;28;2005;-54
2021/10/02 03:55:53;;;;;;;;;;;;;;;20.42;51.36;101616.88;4978246;28;1117;-49
2021/10/02 03:58:18;;;;;;;;;;;;;;;20.20;51.64;101625.47;4978359;28;1221;-54
2021/10/02 04:00:44;;;;;;;;;;;;;;;20.26;51.45;101616.91;4977952;28;1251;-48
2021/10/02 04:03:09;;;;;;;;;;;;;;;20.12;51.53;101618.56;4978069;28;1490;-51
2021/10/02 04:05:35;;;;;;;;;;;;;;;20.03;51.61;101618.28;4978347;28;1073;-51
2021/10/02 04:08:00;;;;;;;;;;;;;;;19.76;52.44;101618.53;4978115;28;1073;-53
2021/10/02 04:10:25;;;;;;;;;;;;;;;19.93;51.66;101621.88;4978342;28;1159;-48
2021/10/02 04:12:51;;;;;;;;;;;;;;;19.78;52.66;101617.16;4977696;28;1910;-50
2021/10/02 04:15:16;;;;;;;;;;;;;;;20.11;52.09;101620.50;4977219;28;975;-54
2021/10/02 04:17:42;;;;;;;;;;;;;;;20.74;50.14;101624.00;4972533;28;1121;-52
2021/10/02 04:20:08;;;;;;;;;;;;;;;21.00;49.45;101619.22;4978220;28;1172;-49
2021/10/02 04:22:33;;;;;;;;;;;;;;;21.05;49.01;101627.47;4976232;28;1152;-54
2021/10/02 04:24:59;;;;;;;;;;;;;;;21.14;49.03;101625.78;4978194;28;1160;-51
2021/10/02 04:27:24;;;;;;;;;;;;;;;20.97;49.33;101639.97;4977444;28;1160;-49
2021/10/02 04:29:50;;;;;;;;;;;;;;;21.12;49.15;101635.47;4978004;28;1140;-49
2021/10/02 04:32:15;;;;;;;;;;;;;;;21.11;49.03;101634.66;4977536;28;1918;-54
2021/10/02 04:34:41;;;;;;;;;;;;;;;20.87;49.51;101628.91;4977636;28;1113;-52
2021/10/02 04:37:06;;;;;;;;;;;;;;;20.61;49.66;101636.47;4977801;28;1117;-50
2021/10/02 04:39:31;;;;;;;;;;;;;;;20.15;50.04;101637.34;4978178;28;1119;-49
2021/10/02 04:41:57;;;;;;;;;;;;;;;19.66;49.91;101641.44;4977970;28;1101;-52
2021/10/02 04:44:22;;;;;;;;;;;;;;;19.13;50.08;101636.84;4977624;28;1326;-50
2021/10/02 04:46:48;;;;;;;;;;;;;;;19.00;50.96;101648.41;4977618;28;989;-51
2021/10/02 04:49:13;;;;;;;;;;;;;;;19.62;51.94;101657.69;4977943;28;1140;-55
2021/10/02 04:51:38;;;;;;;;;;;;;;;20.15;52.04;101653.91;4978010;28;1979;-55
2021/10/02 04:54:04;;;;;;;;;;;;;;;20.48;51.46;101651.66;4977740;28;1096;-52
2021/10/02 04:56:30;;;;;;;;;;;;;;;20.65;50.91;101660.47;4977985;28;1159;-50
2021/10/02 04:58:55;;;;;;;;;;;;;;;20.75;50.49;101667.09;4976599;28;1156;-51
2021/10/02 05:01:20;;;;;;;;;;;;;;;20.93;50.01;101666.50;4977855;28;1113;-54
2021/10/02 05:03:47;;;;;;;;;;;;;;;20.93;49.95;101660.13;4977762;28;1077;-53
2021/10/02 05:06:13;;;;;;;;;;;;;;;20.91;49.82;101665.94;4977744;28;1168;-55
2021/10/02 05:08:38;;;;;;;;;;;;;;;21.15;49.33;101671.69;4977398;28;1120;-52
2021/10/02 05:11:04;;;;;;;;;;;;;;;21.35;48.86;101664.41;4976169;28;1104;-58
2021/10/02 05:13:30;;;;;;;;;;;;;;;21.42;48.51;101664.06;4976642;28;1981;-52
2021/10/02 05:15:56;;;;;;;;;;;;;;;21.37;48.62;101653.88;4977342;28;979;-51
2021/10/02 05:18:21;;;;;;;;;;;;;;;20.95;49.61;101655.16;4977493;28;1101;-50
2021/10/02 05:20:47;;;;;;;;;;;;;;;20.51;50.25;101651.94;4976512;28;1112;-50
2021/10/02 05:23:12;;;;;;;;;;;;;;;19.97;50.76;101663.56;4977002;28;1156;-55
2021/10/02 05:25:38;;;;;;;;;;;;;;;19.63;50.20;101669.56;4977352;28;995;-52
2021/10/02 05:28:03;;;;;;;;;;;;;;;19.18;50.17;101662.78;4976913;28;1164;-50
2021/10/02 05:30:29;;;;;;;;;;;;;;;19.09;49.53;101668.81;4977327;28;983;-49
2021/10/02 05:32:54;;;;;;;;;;;;;;;19.19;50.17;101661.69;4976800;28;1988;-48
2021/10/02 05:35:21;;;;;;;;;;;;;;;19.58;51.18;101672.31;4977409;28;1171;-50
2021/10/02 05:37:47;;;;;;;;;;;;;;;19.93;52.49;101665.22;4977367;28;902;-53
2021/10/02 05:40:13;;;;;;;;;;;;;;;20.38;52.00;101674.59;4977521;28;1089;-50
2021/10/02 05:42:39;;;;;;;;;;;;;;;20.69;51.09;101680.09;4976756;28;1144;-55
2021/10/02 05:45:04;;;;;;;;;;;;;;;20.81;50.75;101685.34;4976828;28;1514;-49
2021/10/02 05:47:30;;;;;;;;;;;;;;;20.81;50.42;101680.63;4976998;28;1109;-50
2021/10/02 05:49:56;;;;;;;;;;;;;;;21.04;50.08;101686.63;4977415;28;1179;-54
2021/10/02 05:52:21;;;;;;;;;;;;;;;21.05;49.60;101688.31;4977391;28;1902;-55
2021/10/02 05:54:46;;;;;;;;;;;;;;;21.24;49.39;101691.28;4977558;28;1121;-54
2021/10/02 05:57:12;;;;;;;;;;;;;;;21.29;49.13;101684.88;4977342;28;1113;-53
2021/10/02 05:59:37;;;;;;;;;;;;;;;21.37;48.77;101681.53;4977095;28;984;-49
2021/10/02 06:02:03;;;;;;;;;;;;;;;21.44;48.50;101679.28;4976935;28;1089;-50
2021/10/02 06:04:28;;;;;;;;;;;;;;;21.44;48.54;101679.28;4977288;28;1435;-51
2021/10/02 06:06:53;;;;;;;;;;;;;;;21.37;48.96;101681.53;4976893;28;1132;-52
2021/10/02 06:09:19;;;;;;;;;;;;;;;21.52;48.51;101681.47;4977298;28;1148;-49
2021/10/02 06:11:44;;;;;;;;;;;;;;;21.32;48.83;101681.56;4976814;28;1955;-57
2021/10/02 06:14:10;;;;;;;;;;;;;;;;;;4976633;28;1159;-54
2021/10/02 06:16:36;;;;;;;;;;;;;;;20.70;50.51;101687.28;4976888;28;1039;-57
2021/10/02 06:19:02;;;;;;;;;;;;;;;20.83;49.89;101688.63;4975499;28;1143;-55
2021/10/02 06:21:27;;;;;;;;;;;;;;;20.36;50.97;101676.81;4976546;28;1229;-58
2021/10/02 06:23:58;;;;;;;;;;;;;;;20.50;50.84;101694.47;4976824;28;1132;-56
2021/10/02 06:26:24;;;;;;;;;;;;;;;20.03;51.97;101678.19;4979914;28;1094;-55
2021/10/02 06:28:49;;;;;;;;;;;;;;;19.98;51.79;101687.31;4980029;28;984;-55
2021/10/02 06:31:15;;;;;;;;;;;;;;;20.09;51.50;101680.69;4975256;28;1184;-56
2021/10/02 06:33:40;;;;;;;;;;;;;;;19.94;51.87;101686.22;4980376;28;1906;-53
2021/10/02 06:36:06;;;;;;;;;;;;;;;20.12;51.14;101690.38;4979719;28;1202;-52
2021/10/02 06:38:32;;;;;;;;;;;;;;;19.73;52.25;101697.19;4973295;28;1196;-53
2021/10/02 06:40:57;;;;;;;;;;;;;;;19.87;51.71;101696.69;4979356;28;1187;-52
2021/10/02 06:43:22;;;;;;;;;;;;;;;19.95;51.84;101685.09;4980431;28;1137;-51
2021/10/02 06:45:48;;;;;;;;;;;;;;;20.32;51.62;101695.88;4980355;28;1144;-48
2021/10/02 06:48:13;;;;;;;;;;;;;;;20.44;51.29;101698.38;4980221;28;1160;-47
2021/10/02 06:50:39;;;;;;;;;;;;;;;20.60;50.67;101690.06;4980350;28;1109;-53
2021/10/02 06:53:05;;;;;;;;;;;;;;;20.52;50.88;101695.03;4978331;28;1918;-49
2021/10/02 06:55:30;;;;;;;;;;;;;;;20.82;50.26;101695.31;4980133;28;1183;-53
2021/10/02 06:57:55;;;;;;;;;;;;;;;20.48;51.11;101702.22;4980239;28;1108;-50
2021/10/02 07:00:21;;;;;;;;;;;;;;;20.58;50.76;101695.03;4980229;28;1023;-55
2021/10/02 07:02:46;;;;;;;;;;;;;;;20.67;50.52;101694.19;4979438;28;1144;-52
2021/10/02 07:05:12;;;;;;;;;;;;;;;20.64;50.78;101694.72;4979125;28;1158;-48
2021/10/02 07:07:39;;;;;;;;;;;;;;;20.65;50.34;101685.34;4979028;28;1039;-51
2021/10/02 07:10:05;;;;;;;;;;;;;;;20.59;50.74;101691.16;4974465;28;1271;-50
2021/10/02 07:12:30;;;;;;;;;;;;;;;20.71;50.38;101683.44;4973153;28;1985;-51
2021/10/02 07:14:56;;;;;;;;;;;;;;;20.85;50.08;101681.72;4974337;28;1094;-48
2021/10/02 07:17:21;;;;;;;;;;;;;;;20.75;50.27;101679.00;4980031;28;1132;-49
2021/10/02 07:19:46;;;;;;;;;;;;;;;20.70;50.50;101679.00;4979006;28;1165;-49
2021/10/02 07:22:12;;;;;;;;;;;;;;;20.70;50.77;101683.72;4979413;28;1104;-51
2021/10/02 07:24:37;;;;;;;;;;;;;;;20.47;51.47;101686.75;4979410;28;1211;-55
2021/10/02 07:27:03;;;;;;;;;;;;;;;20.03;52.09;101675.44;4979471;28;1108;-53
2021/10/02 07:29:28;;;;;;;;;;;;;;;19.38;51.86;101682.19;4979235;28;1176;-49
2021/10/02 07:31:54;;;;;;;;;;;;;;;19.06;50.10;101685.09;4978992;28;1898;-50
2021/10/02 07:34:19;;;;;;;;;;;;;;;18.54;48.65;101686.69;4979329;28;1120;-49
2021/10/02 07:36:45;;;;;;;;;;;;;;;18.47;48.33;101687.72;4978580;28;1124;-57
2021/10/02 07:39:10;;;;;;;;;;;;;;;19.01;51.09;101688.63;4979445;28;1120;-50
2021/10/02 07:41:39;;;;;;;;;;;;;;;19.20;53.62;101688.19;4979221;28;1101;-52
2021/10/02 07:44:04;;;;;;;;;;;;;;;19.61;54.18;101682.78;4979377;28;1080;-55
2021/10/02 07:46:30;;;;;;;;;;;;;;;19.61;55.51;101686.38;4979491;28;1108;-52
2021/10/02 07:48:56;;;;;;;;;;;;;;;20.03;54.61;101692.00;4978660;28;1505;-51
2021/10/02 07:51:22;;;;;;;;;;;;;;;20.38;53.60;101693.13;4979374;28;1108;-56
2021/10/02 07:53:47;;;;;;;;;;;;;;;20.51;52.85;101696.16;4977910;28;1918;-50
2021/10/02 07:56:13;;;;;;;;;;;;;;;20.81;51.97;101691.69;4977944;28;1138;-53
2021/10/02 07:58:38;;;;;;;;;;;;;;;20.77;51.94;101689.78;4978802;28;1024;-54
2021/10/02 08:01:04;;;;;;;;;;;;;;;20.94;51.51;101690.25;4977600;28;1375;-52
2021/10/02 08:03:29;;;;;;;;;;;;;;;21.17;50.54;101685.22;4978902;28;1137;-50
2021/10/02 08:05:54;;;;;;;;;;;;;;;20.91;51.27;101690.03;4977007;28;1183;-53
2021/10/02 08:08:20;;;;;;;;;;;;;;;20.34;52.06;101690.91;4978079;28;1203;-52
2021/10/02 08:10:46;;;;;;;;;;;;;;;20.05;51.86;101698.06;4978859;28;1112;-52
2021/10/02 08:13:12;;;;;;;;;;;;;;;19.36;52.21;101695.41;4978895;28;1918;-55
2021/10/02 08:15:47;;;;;;;;;;;;;;;19.04;51.56;101690.88;4978791;28;976;-53
2021/10/02 08:18:14;;;;;;;;;;;;;;;18.75;51.36;101702.25;4977766;28;1113;-51
2021/10/02 08:20:40;;;;;;;;;;;;;;;18.94;51.16;101701.81;4977838;28;1112;-51
2021/10/02 08:23:05;;;;;;;;;;;;;;;19.02;51.89;101703.25;4976877;28;1131;-55
2021/10/02 08:25:31;;;;;;;;;;;;;;;19.29;53.33;101703.09;4978853;28;1100;-58
2021/10/02 08:27:57;;;;;;;;;;;;;;;19.77;53.29;101698.28;4978545;28;1191;-52
2021/10/02 08:30:22;;;;;;;;;;;;;;;19.86;54.32;101703.31;4978598;28;1186;-59
2021/10/02 08:32:48;;;;;;;;;;;;;;;20.20;54.04;101705.53;4978452;28;1907;-51
2021/10/02 08:35:13;;;;;;;;;;;;;;;20.32;53.33;101709.69;4977964;28;1097;-55
2021/10/02 08:37:39;;;;;;;;;;;;;;;20.29;53.49;101703.91;4978441;28;1168;-57
2021/10/02 08:40:05;;;;;;;;;;;;;;;20.28;53.14;101713.28;4978117;28;1196;-57
2021/10/02 08:42:30;;;;;;;;;;;;;;;20.52;52.48;101713.53;4977708;28;1140;-57
2021/10/02 08:44:56;;;;;;;;;;;;;;;20.70;51.84;101709.41;4976895;28;1116;-59
2021/10/02 08:47:22;;;;;;;;;;;;;;;20.84;51.25;101718.75;4976938;28;1205;-56
2021/10/02 08:49:48;;;;;;;;;;;;;;;20.60;51.74;101714.94;4977014;28;911;-53
2021/10/02 08:52:14;;;;;;;;;;;;;;;20.84;51.38;101717.94;4978281;28;1979;-62
2021/10/02 08:54:40;;;;;;;;;;;;;;;20.88;51.00;101713.53;4977648;28;1186;-57
2021/10/02 08:57:08;;;;;;;;;;;;;;;20.84;51.12;101718.75;4978380;28;1128;-56
2021/10/02 08:59:34;;;;;;;;;;;;;;;20.50;52.10;101702.75;4978054;28;1104;-55
2021/10/02 09:01:59;;;;;;;;;;;;;;;20.35;52.38;101716.59;4976171;28;1401;-56
2021/10/02 09:04:24;;;;;;;;;;;;;;;19.96;53.22;101714.34;4977319;28;1219;-56
2021/10/02 09:06:50;;;;;;;;;;;;;;;19.80;53.42;101708.81;4977702;28;1199;-54
2021/10/02 09:09:17;;;;;;;;;;;;;;;19.83;53.29;101707.44;4977999;28;1100;-56
2021/10/02 09:11:42;;;;;;;;;;;;;;;19.86;53.09;101706.06;4976312;28;1112;-55
2021/10/02 09:14:09;;;;;;;;;;;;;;;19.51;53.81;101710.38;4977198;28;1965;-55
2021/10/02 09:16:35;;;;;;;;;;;;;;;19.46;53.82;101703.72;4970715;28;1160;-55
2021/10/02 09:19:00;;;;;;;;;;;;;;;19.57;53.39;101692.72;4969736;28;1208;-53
2021/10/02 09:21:26;;;;;;;;;;;;;;;19.42;53.77;101699.00;4975898;28;1235;-56
2021/10/02 09:23:51;;;;;;;;;;;;;;;19.29;53.96;101697.56;4977903;28;1089;-52
2021/10/02 09:26:16;;;;;;;;;;;;;;;19.37;53.78;101694.31;4977152;28;1156;-57
2021/10/02 09:28:43;;;;;;;;;;;;;;;19.44;53.71;101688.53;4977847;28;1109;-54
2021/10/02 09:31:08;;;;;;;;;;;;;;;19.52;54.27;101684.41;4977770;28;972;-57
2021/10/02 09:33:34;;;;;;;;;;;;;;;19.94;53.36;101689.78;4977483;28;1984;-56
2021/10/02 09:35:59;;;;;;;;;;;;;;;20.33;52.44;101699.47;4977180;28;1136;-55
2021/10/02 09:38:25;;;;;;;;;;;;;;;20.57;51.56;101698.91;4977757;28;1065;-57
2021/10/02 09:40:57;;;;;;;;;;;;;;;20.79;50.91;101695.84;4976123;28;983;-53
2021/10/02 09:43:24;;;;;;;;;;;;;;;20.79;51.02;101696.69;4977223;28;1093;-55
2021/10/02 09:45:49;;;;;;;;;;;;;;;20.79;50.86;101688.38;4977068;28;1084;-55
2021/10/02 09:48:16;;;;;;;;;;;;;;;21.02;50.24;101688.88;4977064;28;1124;-53
2021/10/02 09:50:42;;;;;;;;;;;;;;;20.84;50.55;101690.31;4977128;28;1172;-58
2021/10/02 09:53:08;;;;;;;;;;;;;;;20.59;51.24;101691.16;4977158;28;1948;-56
2021/10/02 09:55:37;;;;;;;;;;;;;;;20.01;52.21;101697.81;4977100;28;1164;-58
2021/10/02 09:58:05;;;;;;;;;;;;;;;19.52;52.40;101687.16;4974049;28;1136;-59
2021/10/02 10:00:38;;;;;;;;;;;;;;;19.29;51.78;101684.63;4971383;28;1232;-58
2021/10/02 10:03:07;;;;;;;;;;;;;;;18.85;51.12;101692.38;4974534;28;1200;-55
2021/10/02 10:05:33;;;;;;;;;;;;;;;18.74;50.82;101697.00;4972462;28;1193;-59
2021/10/02 10:07:59;;;;;;;;;;;;;;;19.09;52.60;101693.63;4977452;28;1172;-58
2021/10/02 10:10:25;;;;;;;;;;;;;;;19.36;54.11;101689.88;4974235;28;1263;-59
2021/10/02 10:12:51;;;;;;;;;;;;;;;19.70;54.45;101692.22;4974670;28;1993;-56
2021/10/02 10:15:28;;;;;;;;;;;;;;;19.97;54.04;101694.75;4977247;28;1173;-61
2021/10/02 10:17:54;;;;;;;;;;;;;;;20.32;52.77;101692.28;4975779;28;1200;-58
2021/10/02 10:20:19;;;;;;;;;;;;;;;20.46;52.33;101693.38;4973480;28;1022;-60
2021/10/02 10:22:45;;;;;;;;;;;;;;;20.64;51.79;101696.69;4975820;28;1482;-59
2021/10/02 10:25:11;;;;;;;;;;;;;;;20.74;51.42;101688.41;4978042;28;1303;-57
2021/10/02 10:27:36;;;;;;;;;;;;;;;20.67;51.42;101696.97;4975196;28;1227;-58
2021/10/02 10:30:18;;;;;;;;;;;;;;;20.84;50.81;101699.41;4976069;28;1525;-59
2021/10/02 10:32:57;;;;;;;;;;;;;;;20.94;50.73;101697.75;4975315;28;1907;-57
2021/10/02 10:35:23;;;;;;;;;;;;;;;20.58;51.63;101700.53;4974447;28;1185;-58
2021/10/02 10:37:49;;;;;;;;;;;;;;;20.46;51.83;101693.38;4973587;28;1362;-58
2021/10/02 10:40:14;;;;;;;;;;;;;;;20.02;52.87;101691.19;4976003;28;1145;-60
2021/10/02 10:42:39;;;;;;;;;;;;;;;19.71;53.47;101699.34;4974776;28;1255;-57
2021/10/02 10:45:05;;;;;;;;;;;;;;;19.57;54.00;101689.94;4974070;28;1421;-57
2021/10/02 10:47:31;;;;;;;;;;;;;;;19.62;53.43;101696.31;4973477;28;1134;-59
2021/10/02 10:49:56;;;;;;;;;;;;;;;19.64;53.41;101688.59;4974502;28;1228;-60
2021/10/02 10:52:22;;;;;;;;;;;;;;;19.43;53.96;101693.25;4974618;28;1919;-58
2021/10/02 10:54:51;;;;;;;;;;;;;;;19.43;53.90;101684.13;4975738;28;1232;-55
2021/10/02 10:57:33;;;;;;;;;;;;;;;19.54;53.58;101682.22;4980020;28;988;-52
2021/10/02 10:59:58;;;;;;;;;;;;;;;19.44;54.21;101683.84;4970253;28;1042;-57
2021/10/02 11:02:42;;;;;;;;;;;;;;;20.00;53.21;101685.09;4980511;28;1172;-58
2021/10/02 11:05:26;;;;;;;;;;;;;;;20.38;52.10;101690.34;4967124;28;1105;-60
2021/10/02 11:07:51;;;;;;;;;;;;;;;20.58;51.39;101689.50;4972973;28;1172;-59
2021/10/02 11:10:36;;;;;;;;;;;;;;;20.50;51.63;101683.44;4973175;28;1204;-51
2021/10/02 11:13:01;;;;;;;;;;;;;;;20.75;50.98;101687.28;4973654;28;1919;-55
2021/10/02 11:15:26;;;;;;;;;;;;;;;20.75;50.54;101689.22;4972214;28;1185;-56
2021/10/02 11:17:52;;;;;;;;;;;;;;;21.01;50.04;101690.81;4973243;28;1234;-58
2021/10/02 11:20:17;;;;;;;;;;;;;;;20.87;50.39;101689.75;4969998;28;1252;-60
2021/10/02 11:23:08;;;;;;;;;;;;;;;20.73;50.67;101688.69;4965332;28;1192;-59
2021/10/02 11:25:34;;;;;;;;;;;;;;;20.02;52.15;101685.66;4975294;28;1275;-62
2021/10/02 11:28:19;;;;;;;;;;;;;;;19.43;52.73;101687.72;4976461;28;1287;-60
2021/10/02 11:30:45;;;;;;;;;;;;;;;19.22;51.66;101691.50;4965668;28;1287;-57
2021/10/02 11:33:27;;;;;;;;;;;;;;;19.10;50.47;101694.47;4972241;28;1915;-57
2021/10/02 11:35:52;;;;;;;;;;;;;;;18.82;50.24;101699.25;4971975;28;1146;-57
2021/10/02 11:38:32;;;;;;;;;;;;;;;18.77;52.07;101690.94;4970510;28;1643;-54
2021/10/02 11:40:58;;;;;;;;;;;;;;;19.13;54.05;101692.00;4973254;28;1157;-59
2021/10/02 11:43:24;;;;;;;;;;;;;;;19.64;54.25;101688.59;4972361;28;1267;-60
2021/10/02 11:45:49;;;;;;;;;;;;;;;19.88;54.14;101688.13;4977762;28;1137;-63
2021/10/02 11:48:37;;;;;;;;;;;;;;;20.14;53.41;101679.84;4978723;28;1100;-54
2021/10/02 11:51:15;;;;;;;;;;;;;;;20.50;52.25;101688.13;4978902;28;1203;-63
2021/10/02 11:53:41;;;;;;;;;;;;;;;20.70;51.65;101687.28;4972851;28;1983;-60
2021/10/02 11:56:10;;;;;;;;;;;;;;;20.52;52.01;101684.00;4979198;28;1212;-58
2021/10/02 11:58:40;;;;;;;;;;;;;;;20.74;51.28;101677.34;4979300;28;1060;-58
2021/10/02 12:01:05;;;;;;;;;;;;;;;20.60;51.62;101681.75;4978350;28;1019;-59
2021/10/02 12:03:32;;;;;;;;;;;;;;;20.62;51.39;101679.53;4977794;28;1175;-59
2021/10/02 12:05:58;;;;;;;;;;;;;;;20.07;52.51;101674.59;4979057;28;1136;-58
2021/10/02 12:08:24;;;;;;;;;;;;;;;19.70;52.25;101678.41;4979453;28;1104;-59
2021/10/02 12:10:52;;;;;;;;;;;;;;;19.19;52.05;101675.50;4979060;28;1124;-57
2021/10/02 12:13:18;;;;;;;;;;;;;;;19.08;51.24;101675.44;4978425;28;1918;-57
2021/10/02 12:15:43;;;;;;;;;;;;;;;19.05;50.04;101669.63;4978384;28;988;-60
2021/10/02 12:18:09;;;;;;;;;;;;;;;18.55;51.05;101669.88;4978864;28;1184;-62
2021/10/02 12:20:37;;;;;;;;;;;;;;;19.02;52.61;101676.50;4978831;28;1171;-59
2021/10/02 12:23:06;;;;;;;;;;;;;;;19.32;54.08;101674.97;4977378;28;1152;-59
2021/10/02 12:25:31;;;;;;;;;;;;;;;19.47;55.74;101682.47;4978340;28;1161;-57
2021/10/02 12:27:57;;;;;;;;;;;;;;;19.52;56.47;101678.88;4978313;28;1104;-58
2021/10/02 12:30:22;;;;;;;;;;;;;;;19.82;55.50;101681.78;4978438;28;1128;-53
2021/10/02 12:32:55;;;;;;;;;;;;;;;20.10;54.42;101679.56;4978562;28;1981;-60
2021/10/02 12:35:20;;;;;;;;;;;;;;;20.37;53.69;101683.16;4978203;28;1229;-60
2021/10/02 12:37:46;;;;;;;;;;;;;;;20.57;52.78;101687.84;4973970;28;1160;-60
2021/10/02 12:40:12;;;;;;;;;;;;;;;20.63;52.50;101684.78;4973308;28;1271;-58
2021/10/02 12:42:37;;;;;;;;;;;;;;;20.57;52.44;101682.34;4972017;28;1070;-57
2021/10/02 12:45:07;;;;;;;;;;;;;;;20.50;52.58;101677.91;4978116;28;1104;-54
2021/10/02 12:47:32;;;;;;;;;;;;;;;20.40;52.80;101688.13;4975245;28;1208;-64
2021/10/02 12:50:02;;;;;;;;;;;;;;;19.95;54.12;101685.09;4972417;28;1022;-62
2021/10/02 12:52:27;;;;;;;;;;;;;;;19.66;54.66;101682.81;4974144;28;1977;-57
2021/10/02 12:54:54;;;;;;;;;;;;;;;19.57;54.71;101678.91;4975899;28;1255;-59
2021/10/02 12:57:25;;;;;;;;;;;;;;;19.71;53.84;101680.03;4971990;28;1370;-59
2021/10/02 12:59:50;;;;;;;;;;;;;;;19.58;54.02;101677.81;4969966;28;1154;-54
2021/10/02 13:02:16;;;;;;;;;;;;;;;19.22;54.82;101689.53;4970072;28;1204;-57
2021/10/02 13:04:42;;;;;;;;;;;;;;;19.18;54.77;101682.09;4973961;28;1268;-62
2021/10/02 13:07:07;;;;;;;;;;;;;;;19.15;54.46;101675.19;4970002;28;1173;-60
2021/10/02 13:09:51;;;;;;;;;;;;;;;19.09;54.50;101677.09;4977752;28;1093;-59
2021/10/02 13:12:16;;;;;;;;;;;;;;;19.18;54.91;101669.16;4970448;28;1973;-62
2021/10/02 13:14:44;;;;;;;;;;;;;;;19.75;54.41;101672.06;4977638;28;1207;-60
2021/10/02 13:17:10;;;;;;;;;;;;;;;19.88;54.56;101665.22;4977268;28;1151;-60
2021/10/02 13:19:35;;;;;;;;;;;;;;;20.18;53.35;101670.75;4977632;28;1168;-58
2021/10/02 13:22:16;;;;;;;;;;;;;;;20.49;52.70;101676.22;4977045;28;1139;-59
2021/10/02 13:25:00;;;;;;;;;;;;;;;20.56;52.35;101677.91;4977273;28;1132;-58
2021/10/02 13:27:30;;;;;;;;;;;;;;;20.61;52.17;101673.19;4977364;28;1116;-59
2021/10/02 13:30:03;;;;;;;;;;;;;;;20.72;52.13;101679.56;4972212;28;1097;-59
2021/10/02 13:32:28;;;;;;;;;;;;;;;20.71;51.89;101677.09;4977039;28;1942;-58
2021/10/02 13:34:54;;;;;;;;;;;;;;;20.39;52.24;101678.22;4976504;28;1175;-58
2021/10/02 13:37:23;;;;;;;;;;;;;;;19.85;52.87;101677.63;4976912;28;1187;-57
2021/10/02 13:39:49;;;;;;;;;;;;;;;19.41;52.34;101667.84;4977112;28;1136;-55
2021/10/02 13:42:17;;;;;;;;;;;;;;;19.24;51.34;101670.81;4977057;28;1179;-58